createdAt,value
2022-07-26T00:02:57.999Z,99594.81
2022-07-26T00:08:10.806Z,99589.63
2022-07-26T00:13:14.093Z,99586.34
2022-07-26T00:18:17.822Z,99589.31
2022-07-26T00:23:20.902Z,99584.72
2022-07-26T00:28:23.901Z,99580.13
2022-07-26T00:33:26.725Z,99579.56
2022-07-26T00:38:29.681Z,99576.56
2022-07-26T00:43:33.145Z,99581.38
2022-07-26T00:48:36.195Z,99572.59
2022-07-26T00:53:39.102Z,99569.19
2022-07-26T00:58:44.402Z,99572.31
2022-07-26T01:03:53.239Z,99567.03
2022-07-26T01:08:56.358Z,99556.41
2022-07-26T01:13:59.229Z,99548.31
2022-07-26T01:19:02.834Z,99552.03
2022-07-26T01:24:06.628Z,99547.13
2022-07-26T01:29:09.960Z,99527.09
2022-07-26T01:34:13.033Z,99540.53
2022-07-26T01:39:15.791Z,99519.94
2022-07-26T01:44:18.722Z,99524.44
2022-07-26T01:49:21.973Z,99522.75
2022-07-26T01:54:24.901Z,99519.75
2022-07-26T01:59:27.733Z,99516.38
2022-07-26T02:04:49.464Z,99515.66
2022-07-26T02:09:52.279Z,99514.53
2022-07-26T02:14:56.136Z,99517.16
2022-07-26T02:19:59.407Z,99515.94
2022-07-26T02:25:05.327Z,99513.16
2022-07-26T02:30:09.567Z,99513.66
2022-07-26T02:35:12.776Z,99519.06
2022-07-26T02:40:19.330Z,99521.41
2022-07-26T02:45:22.637Z,99526.25
2022-07-26T02:50:27.993Z,99530.81
2022-07-26T02:55:31.331Z,99520.50
2022-07-26T03:00:34.291Z,99515.94
2022-07-26T03:05:37.099Z,99517.59
2022-07-26T03:10:40.099Z,99520.03
2022-07-26T03:15:42.942Z,99518.06
2022-07-26T03:20:47.048Z,99527.31
2022-07-26T03:25:50.069Z,99529.41
2022-07-26T03:30:52.901Z,99528.69
2022-07-26T03:35:55.861Z,99529.03
2022-07-26T03:40:58.875Z,99516.91
2022-07-26T03:46:02.214Z,99512.16
2022-07-26T03:51:05.265Z,99510.63
2022-07-26T03:56:26.770Z,99507.72
2022-07-26T04:01:30.182Z,99502.94
2022-07-26T04:06:33.066Z,99497.56
2022-07-26T04:11:36.033Z,99496.94
2022-07-26T04:16:43.458Z,99491.25
2022-07-26T04:21:46.939Z,99487.13
2022-07-26T04:26:49.698Z,99490.66
2022-07-26T04:31:52.669Z,99494.63
2022-07-26T04:36:55.547Z,99529.41
2022-07-26T04:41:58.361Z,99539.75
2022-07-26T04:47:01.237Z,99527.38
2022-07-26T04:52:04.520Z,99517.22
2022-07-26T04:57:07.359Z,99525.41
2022-07-26T05:02:10.715Z,99522.34
2022-07-26T05:07:13.680Z,99528.56
2022-07-26T05:12:16.546Z,99498.94
2022-07-26T05:17:19.455Z,99510.38
2022-07-26T05:22:23.432Z,99506.72
2022-07-26T05:27:26.295Z,99507.34
2022-07-26T05:32:29.483Z,99516.34
2022-07-26T05:37:32.292Z,99509.50
2022-07-26T05:42:35.130Z,99508.78
2022-07-26T05:47:38.075Z,99498.78
2022-07-26T05:52:40.848Z,99510.41
2022-07-26T05:57:47.462Z,99500.06
2022-07-26T06:02:52.677Z,99490.94
2022-07-26T06:07:55.598Z,99504.72
2022-07-26T06:12:59.780Z,99501.53
2022-07-26T06:18:02.724Z,99497.78
2022-07-26T06:23:05.621Z,99508.28
2022-07-26T06:28:10.945Z,99506.59
2022-07-26T06:33:13.959Z,99499.69
2022-07-26T06:38:16.772Z,99498.09
2022-07-26T06:43:20.735Z,99494.13
2022-07-26T06:48:23.627Z,99499.22
2022-07-26T06:53:26.387Z,99492.00
2022-07-26T06:58:29.502Z,99481.88
2022-07-26T07:03:32.292Z,99473.03
2022-07-26T07:08:35.524Z,99469.53
2022-07-26T07:13:38.408Z,99465.47
2022-07-26T07:18:41.546Z,99466.81
2022-07-26T07:23:44.985Z,99476.88
2022-07-26T07:28:48.647Z,99473.22
2022-07-26T07:33:53.539Z,99480.72
2022-07-26T07:38:56.717Z,99495.91
2022-07-26T07:44:00.783Z,99503.88
2022-07-26T07:49:03.933Z,99494.38
2022-07-26T07:54:06.805Z,99492.13
2022-07-26T07:59:10.261Z,99495.25
2022-07-26T08:04:13.587Z,99509.66
2022-07-26T08:09:16.614Z,99503.25
2022-07-26T08:14:19.845Z,99516.63
2022-07-26T08:19:22.714Z,99518.09
2022-07-26T08:24:25.520Z,99516.47
2022-07-26T08:29:28.664Z,99509.25
2022-07-26T08:34:31.748Z,99506.75
2022-07-26T08:39:35.032Z,99513.25
2022-07-26T08:44:40.903Z,99507.13
2022-07-26T08:49:44.601Z,99507.59
2022-07-26T08:54:51.170Z,99521.88
2022-07-26T09:00:29.744Z,99511.50
2022-07-26T09:05:37.331Z,99521.47
2022-07-26T09:10:40.220Z,99538.28
2022-07-26T09:15:43.281Z,99546.50
2022-07-26T09:20:48.052Z,99545.41
2022-07-26T09:25:51.547Z,99547.41
2022-07-26T09:31:02.076Z,99568.63
2022-07-26T09:36:07.701Z,99594.88
2022-07-26T09:41:37.871Z,99623.88
2022-07-26T09:46:58.898Z,99641.38
2022-07-26T09:52:02.007Z,99665.06
2022-07-26T09:57:04.992Z,99668.66
2022-07-26T10:02:07.914Z,99698.28
2022-07-26T10:07:11.291Z,99728.38
2022-07-26T10:12:17.062Z,99721.91
2022-07-26T10:17:31.641Z,99681.56
2022-07-26T10:22:52.892Z,99614.53
2022-07-26T10:27:58.156Z,99645.66
2022-07-26T10:33:10.332Z,99647.94
2022-07-26T10:38:27.601Z,99668.91
2022-07-26T10:43:41.059Z,99691.81
2022-07-26T10:49:18.647Z,99710.53
2022-07-26T10:54:21.664Z,99710.03
2022-07-26T10:59:54.691Z,99700.91
2022-07-26T11:05:31.678Z,99701.75
2022-07-26T11:10:43.318Z,99693.72
2022-07-26T11:16:03.131Z,99702.41
2022-07-26T11:21:17.512Z,99692.09
2022-07-26T11:26:25.732Z,99702.59
2022-07-26T11:31:49.371Z,99696.63
2022-07-26T11:36:58.878Z,99690.94
2022-07-26T11:42:08.715Z,99697.53
2022-07-26T11:47:25.527Z,99687.88
2022-07-26T11:52:31.334Z,99690.09
2022-07-26T11:57:34.420Z,99691.88
2022-07-26T12:02:37.272Z,99706.56
2022-07-26T12:07:52.586Z,99692.53
2022-07-26T12:13:17.261Z,99673.03
2022-07-26T12:18:32.764Z,99673.41
2022-07-26T12:23:50.003Z,99656.16
2022-07-26T12:28:53.726Z,99652.19
2022-07-26T12:33:57.244Z,99667.72
2022-07-26T12:39:01.196Z,99663.38
2022-07-26T12:44:06.388Z,99676.69
2022-07-26T12:49:09.250Z,99687.00
2022-07-26T12:54:12.378Z,99684.38
2022-07-26T12:59:17.691Z,99681.03
2022-07-26T13:04:20.949Z,99669.78
2022-07-26T13:09:23.810Z,99677.75
2022-07-26T13:14:26.993Z,99659.84
2022-07-26T13:19:29.941Z,99660.13
2022-07-26T13:24:34.562Z,99653.09
2022-07-26T13:29:39.505Z,99656.38
2022-07-26T13:34:43.597Z,99672.09
2022-07-26T13:39:46.505Z,99682.69
2022-07-26T13:44:49.285Z,99666.41
2022-07-26T13:49:52.141Z,99675.09
2022-07-26T13:54:55.465Z,99678.66
2022-07-26T13:59:58.235Z,99675.09
2022-07-26T14:05:01.035Z,99680.56
2022-07-26T14:10:04.543Z,99677.88
2022-07-26T14:15:16.665Z,99665.31
2022-07-26T14:20:22.665Z,99678.31
2022-07-26T14:25:27.730Z,99668.44
2022-07-26T14:30:30.777Z,99668.44
2022-07-26T14:35:33.642Z,99680.19
2022-07-26T14:40:37.046Z,99674.78
2022-07-26T14:45:39.971Z,99666.63
2022-07-26T14:51:08.228Z,99664.19
2022-07-26T14:56:06.254Z,99665.00
2022-07-26T15:01:09.299Z,99662.56
2022-07-26T15:06:12.272Z,99663.41
2022-07-26T15:11:15.984Z,99653.34
2022-07-26T15:16:19.002Z,99648.44
2022-07-26T15:21:22.023Z,99633.47
2022-07-26T15:26:25.014Z,99635.09
2022-07-26T15:31:36.749Z,99641.06
2022-07-26T15:36:41.115Z,99644.06
2022-07-26T15:41:44.147Z,99621.22
2022-07-26T15:46:48.579Z,99612.25
2022-07-26T15:51:51.661Z,99603.28
2022-07-26T15:56:54.733Z,99605.50
2022-07-26T16:01:58.384Z,99595.44
2022-07-26T16:07:02.286Z,99598.97
2022-07-26T16:12:06.377Z,99614.72
2022-07-26T16:17:09.289Z,99607.69
2022-07-26T16:22:12.062Z,99606.06
2022-07-26T16:27:15.005Z,99618.00
2022-07-26T16:32:18.026Z,99619.66
2022-07-26T16:37:21.182Z,99624.03
2022-07-26T16:42:24.282Z,99615.34
2022-07-26T16:47:27.116Z,99612.91
2022-07-26T16:52:30.052Z,99613.16
2022-07-26T16:57:32.938Z,99631.38
2022-07-26T17:02:36.645Z,99639.81
2022-07-26T17:07:39.591Z,99642.00
2022-07-26T17:12:42.476Z,99642.00
2022-07-26T17:17:49.027Z,99646.91
2022-07-26T17:22:52.309Z,99647.47
2022-07-26T17:27:55.266Z,99650.41
2022-07-26T17:32:58.861Z,99652.56
2022-07-26T17:38:02.225Z,99654.47
2022-07-26T17:43:06.433Z,99651.75
2022-07-26T17:48:09.600Z,99648.75
2022-07-26T17:53:12.679Z,99631.09
2022-07-26T17:58:15.546Z,99661.22
2022-07-26T18:03:18.632Z,99654.97
2022-07-26T18:08:27.203Z,99650.31
2022-07-26T18:13:30.321Z,99650.81
2022-07-26T18:18:33.601Z,99662.47
2022-07-26T18:23:36.874Z,99665.94
2022-07-26T18:28:40.675Z,99670.22
2022-07-26T18:33:45.018Z,99672.66
2022-07-26T18:38:49.363Z,99678.88
2022-07-26T18:43:52.233Z,99689.41
2022-07-26T18:48:55.094Z,99692.63
2022-07-26T18:54:00.480Z,99697.19
2022-07-26T18:59:04.047Z,99708.53
2022-07-26T19:04:07.592Z,99702.81
2022-07-26T19:09:10.960Z,99712.53
2022-07-26T19:14:15.599Z,99705.41
2022-07-26T19:19:18.454Z,99710.75
2022-07-26T19:24:21.330Z,99719.84
2022-07-26T19:29:24.449Z,99720.28
2022-07-26T19:34:27.966Z,99722.34
2022-07-26T19:39:31.489Z,99718.97
2022-07-26T19:44:34.353Z,99717.84
2022-07-26T19:49:37.312Z,99726.09
2022-07-26T19:54:41.075Z,99714.91
2022-07-26T19:59:44.334Z,99722.09
2022-07-26T20:04:47.121Z,99736.06
2022-07-26T20:09:51.406Z,99736.25
2022-07-26T20:14:54.186Z,99738.91
2022-07-26T20:19:57.177Z,99742.34
2022-07-26T20:25:00.112Z,99752.78
2022-07-26T20:30:03.567Z,99757.00
2022-07-26T20:35:07.089Z,99762.59
2022-07-26T20:40:12.588Z,99763.81
2022-07-26T20:45:18.741Z,99770.75
2022-07-26T20:50:23.222Z,99768.47
2022-07-26T20:55:27.243Z,99761.84
2022-07-26T21:00:30.354Z,99758.81
2022-07-26T21:05:33.290Z,99760.63
2022-07-26T21:10:36.733Z,99768.06
2022-07-26T21:15:39.729Z,99760.97
2022-07-26T21:20:42.782Z,99760.56
2022-07-26T21:25:45.722Z,99771.28
2022-07-26T21:30:49.490Z,99767.41
2022-07-26T21:35:53.181Z,99765.78
2022-07-26T21:40:56.028Z,99772.72
2022-07-26T21:45:59.111Z,99779.91
2022-07-26T21:51:01.999Z,99769.78
2022-07-26T21:56:05.661Z,99780.56
2022-07-26T22:01:11.244Z,99774.44
2022-07-26T22:06:14.303Z,99769.94
2022-07-26T22:11:17.077Z,99772.63
2022-07-26T22:16:21.140Z,99779.34
2022-07-26T22:21:23.953Z,99773.59
2022-07-26T22:26:31.090Z,99765.63
2022-07-26T22:31:35.298Z,99767.41
2022-07-26T22:36:43.474Z,99764.56
2022-07-26T22:42:13.653Z,99759.56
2022-07-26T22:47:11.019Z,99767.81
2022-07-26T22:52:13.838Z,99766.28
2022-07-26T22:57:16.654Z,99767.09
2022-07-26T23:02:19.531Z,99780.25
2022-07-26T23:07:22.419Z,99779.25
2022-07-26T23:12:25.416Z,99787.72
2022-07-26T23:17:28.327Z,99786.63
2022-07-26T23:22:31.097Z,99783.94
2022-07-26T23:27:33.927Z,99791.56
2022-07-26T23:32:36.803Z,99794.81
2022-07-26T23:37:40.173Z,99792.38
2022-07-26T23:42:42.895Z,99794.81
2022-07-26T23:47:45.849Z,99796.38
2022-07-26T23:52:48.705Z,99797.69
2022-07-26T23:57:51.513Z,99796.06
